GB-0027 weather

Public forecast

Using degrees Celsius for public forecast. Weather courtesy of forecast.io.

Closest aviation weather report (METAR) to Stancombe Farm Airstrip (Private)

Closest report is RNAS Yeovilton, 17.1 nm (31.7 km) N. Retrieved 2020/08/14 03:50 UTC (60 minutes ago):

EGDY 140350Z AUTO 01004KT 4000 BR BKN009/// 19/18 Q1012

Closest aviation forecast (TAF) to Stancombe Farm Airstrip (Private)

Forecast is more than 12 hours old.

Closest forecast is RNAS Yeovilton, 17.1 nm (31.7 km) N. Retrieved 2020/07/01 18:15 UTC (1 month ago):

TAF TAF EGDY 010110Z 3018/0103 CNL